Portada
METAR-TAF:

METAR-TAF

Aeropuertos :

Aeropuerto Internacional de Dusambé

Dusambé, Tayikistán

latitud: 38-33N, longitud: 068-47E, altitud: 803 m

Observación

El informe se hizo hace 38 minutos, a las 16:30 UTC
Viento 4 kt del este
Temperatura 20°C
Humedad 40%
Presión 1016 hPa
Visibilidad 10 km o más

METAR: UTDD 251630Z 08002MPS 9999 NSC 20/06 Q1016 R09/D NOSIG RMK QFE694/0925

Hora: 22:08 (17:08 UTC)

Pronóstico

El informe se hizo hace 2 horas y 8 minutos, a las 15:00 UTC
Pronóstico válido del 25 a las 16 UTC al 26 a las 04 UTC
Viento 4 kt con dirección variable
Visibilidad: 6000 m
Escasas nubes a una altura de 6600 ft, Cumulonimbus.
Nubes dispersas a una altura de 11000 ft
Probabilidad 40% :
Temporalmente
del 25 a las 22 UTC al 26 a las 04 UTC
tormenta

TAF: UTDD 251500Z 2516/2604 VRB02MPS 6000 FEW066CB SCT110 PROB40 TEMPO 2522/2604 TS

Observaciones y pronósticos meteorológicos de más de 4000 aeropuertos (mensajes METAR y TAF).

Los puntos amarillos y rojos representan las estaciones disponibles.

Ponga el ratón en el punto deseado para ver el nombre de la estación.

Haga clic para ver las observaciones y los pronósticos meteorológicos.

Para cambiar el mapa : haga clic en los botones verdes con una cruz de color negro para hacer un zoom, en el botón verde con un guión para alejar o en las flechas verdes para mapas adyacentes.


METAR-TAF: